CheckWX is a tool to help pilots better visualize weather data.  It is not intended as a substitute for an official pre-flight weather briefing.

13:14:38 UTC

KABE METAR
Lehigh Valley International Airport
Allentown, Pennsylvania, USA
Current

24 mins ago

KABE 311251Z 05008KT 6SM -RA OVC015 08/04 A3001 RMK AO2 RAB49 SLP163 P0000 T00780039
Observed
Mar-31 @ 12:51 UTC
Wind
  • 050° at 8 KTS
Visibility
6 SM
Flight Rules
MVFR
Conditions
Light Rain
Cloud Levels
  • Overcast at 1,500' AGL
Temperature
C / 46°F
Dewpoint
C / 39°F
Humidity
76%
Altimeter
30.01" Hg
Pressure
1016.22 hPa
Current Rain
0.01"
Previous

1 hour ago

KABE 311208Z 03005KT 10SOVC042 08/04 A3000
Observed
Mar-31 @ 12:08 UTC
Wind
  • 030° at 5 KTS
Visibility
Cloud Levels
  • Overcast at 4,200' AGL
Temperature
C / 46°F
Dewpoint
C / 39°F
Humidity
76%
Altimeter
30" Hg
Pressure
1015.92 hPa
Previous

1 hour ago

KABE 311208Z 03005KT 10SN ZCZC ARBMTRDTW SPUS70 KDTW 311226 SPECI
Observed
Mar-31 @ 12:08 UTC
Wind
  • 030° at 5 KTS
Visibility
0.76 SM
Conditions
Ice pellets, Snow
Cloud Levels